Time;durP1;ratioP1;P1;durP2;ratioP2;P2;SDS_P1;SDS_P2;PMS_P1;PMS_P2;Temp;Humidity;BMP_temperature;BMP_pressure;BME280_temperature;BME280_humidity;BME280_pressure;Samples;Min_cycle;Max_cycle;Signal;HPM_P1;HPM_P2
2023/05/27 00:01:42;;;;;;;1.40;1.40;;;16.30;99.90;;;;;;5026181;28;20209;-61
2023/05/27 00:04:09;;;;;;;2.60;1.40;;;16.30;99.90;;;;;;5030633;28;20232;-63
2023/05/27 00:06:36;;;;;;;1.37;1.30;;;16.20;99.90;;;;;;5032863;28;20205;-62
2023/05/27 00:09:03;;;;;;;1.55;1.45;;;16.20;99.90;;;;;;5028677;28;20224;-61
2023/05/27 00:11:30;;;;;;;1.47;1.40;;;16.10;99.90;;;;;;5023368;28;20297;-61
2023/05/27 00:13:59;;;;;;;1.53;1.43;;;16.10;99.90;;;;;;5028232;28;20201;-62
2023/05/27 00:16:26;;;;;;;1.20;1.20;;;16.00;99.90;;;;;;5030606;28;20284;-63
2023/05/27 00:18:53;;;;;;;1.70;1.60;;;15.90;99.90;;;;;;5031062;28;20224;-63
2023/05/27 00:21:20;;;;;;;1.50;1.40;;;16.00;99.90;;;;;;5034233;28;20679;-62
2023/05/27 00:23:48;;;;;;;1.45;1.38;;;16.00;99.90;;;;;;5036709;28;20675;-63
2023/05/27 00:26:14;;;;;;;1.30;1.30;;;16.00;99.90;;;;;;5047360;28;20291;-61
2023/05/27 00:28:41;;;;;;;1.27;1.27;;;15.90;99.90;;;;;;5043218;28;20236;-63
2023/05/27 00:31:09;;;;;;;1.80;1.67;;;16.00;99.90;;;;;;5041038;28;20287;-63
2023/05/27 00:33:36;;;;;;;1.80;1.70;;;16.00;99.90;;;;;;5038533;28;20200;-62
2023/05/27 00:36:04;;;;;;;1.30;1.30;;;16.00;99.90;;;;;;5035603;28;20205;-63
2023/05/27 00:38:30;;;;;;;1.63;1.52;;;16.00;99.90;;;;;;5037334;28;20247;-61
2023/05/27 00:41:00;;;;;;;1.40;1.40;;;15.90;99.90;;;;;;5035545;28;20211;-61
2023/05/27 00:43:27;;;;;;;1.60;1.50;;;15.90;99.90;;;;;;5034367;28;20206;-60
2023/05/27 00:45:54;;;;;;;1.70;1.60;;;16.00;99.90;;;;;;5034370;28;20205;-63
2023/05/27 00:48:22;;;;;;;1.70;1.60;;;16.00;99.90;;;;;;5034265;28;20215;-61
2023/05/27 00:50:49;;;;;;;1.70;1.60;;;15.90;99.90;;;;;;5034225;28;20199;-61
2023/05/27 00:53:17;;;;;;;1.80;1.70;;;15.90;99.90;;;;;;5034490;28;20643;-62
2023/05/27 00:55:44;;;;;;;1.70;1.60;;;15.80;99.90;;;;;;5035624;28;20211;-63
2023/05/27 00:58:12;;;;;;;1.60;1.50;;;15.90;99.90;;;;;;5035520;28;20209;-62
2023/05/27 01:00:38;;;;;;;1.63;1.52;;;15.70;99.90;;;;;;5033559;28;20214;-63
2023/05/27 01:03:07;;;;;;;1.70;1.60;;;15.80;99.90;;;;;;5034974;28;20204;-61
2023/05/27 01:05:35;;;;;;;1.80;1.70;;;15.80;99.90;;;;;;5034633;28;20213;-63
2023/05/27 01:08:12;;;;;;;1.60;1.50;;;15.80;99.90;;;;;;5040683;28;20240;-61
2023/05/27 01:10:43;;;;;;;1.67;1.57;;;15.80;99.90;;;;;;5044647;28;20198;-63
2023/05/27 01:13:17;;;;;;;1.77;1.67;;;15.80;99.90;;;;;;5039493;28;20200;-63
2023/05/27 01:15:45;;;;;;;1.70;1.60;;;15.80;99.90;;;;;;5039710;28;20205;-62
2023/05/27 01:18:13;;;;;;;1.60;1.50;;;15.70;99.90;;;;;;5036292;28;20218;-63
2023/05/27 01:20:43;;;;;;;1.50;1.40;;;15.70;99.90;;;;;;5039302;28;20210;-63
2023/05/27 01:23:11;;;;;;;1.80;1.70;;;15.60;99.90;;;;;;5042384;28;20236;-62
2023/05/27 01:25:38;;;;;;;2.80;1.90;;;15.70;99.90;;;;;;5042607;28;20209;-62
2023/05/27 01:28:05;;;;;;;2.00;1.80;;;15.70;99.90;;;;;;5045865;28;20212;-62
2023/05/27 01:30:32;;;;;;;2.10;1.90;;;15.60;99.90;;;;;;5045860;28;20216;-62
2023/05/27 01:33:05;;;;;;;1.90;1.80;;;15.60;99.90;;;;;;5035750;28;20200;-64
2023/05/27 01:35:38;;;;;;;1.93;1.80;;;15.60;99.90;;;;;;5034869;28;20873;-62
2023/05/27 01:38:09;;;;;;;1.80;1.70;;;15.50;99.90;;;;;;5034483;28;20212;-62
2023/05/27 01:40:39;;;;;;;2.03;1.92;;;15.50;99.90;;;;;;5030531;28;20216;-61
2023/05/27 01:43:07;;;;;;;2.00;1.90;;;15.50;99.90;;;;;;5034026;28;20247;-64
2023/05/27 01:45:35;;;;;;;1.85;1.75;;;15.50;99.90;;;;;;5033496;28;20291;-62
2023/05/27 01:48:02;;;;;;;1.80;1.70;;;15.50;99.90;;;;;;5033647;28;20208;-61
2023/05/27 01:50:30;;;;;;;1.50;1.40;;;15.40;99.90;;;;;;5032800;28;20238;-63
2023/05/27 01:52:57;;;;;;;1.73;1.63;;;15.40;99.90;;;;;;5036414;28;20215;-61
2023/05/27 01:55:24;;;;;;;1.55;1.45;;;15.40;99.90;;;;;;5033602;28;20211;-62
2023/05/27 01:57:52;;;;;;;2.23;1.50;;;15.40;99.90;;;;;;5033250;28;20683;-62
2023/05/27 02:00:19;;;;;;;1.60;1.50;;;15.40;99.90;;;;;;5032612;28;20675;-61
2023/05/27 02:02:46;;;;;;;1.67;1.43;;;15.40;99.90;;;;;;5033431;28;20560;-61
2023/05/27 02:05:13;;;;;;;1.90;1.80;;;15.40;99.90;;;;;;5033535;28;20211;-62
2023/05/27 02:07:40;;;;;;;1.80;1.70;;;15.30;99.90;;;;;;5032705;28;20209;-63
2023/05/27 02:10:08;;;;;;;2.00;1.90;;;15.30;99.90;;;;;;5047005;28;20223;-61
2023/05/27 02:12:34;;;;;;;2.10;1.90;;;15.20;99.90;;;;;;5053247;28;20204;-63
2023/05/27 02:15:03;;;;;;;1.63;1.53;;;15.10;99.90;;;;;;5053398;28;20210;-62
2023/05/27 02:17:30;;;;;;;1.90;1.80;;;15.10;99.90;;;;;;5052859;28;20214;-61
2023/05/27 02:19:56;;;;;;;2.20;2.10;;;15.20;99.90;;;;;;5052028;28;20254;-62
2023/05/27 02:22:23;;;;;;;2.00;1.90;;;15.10;99.90;;;;;;5052982;28;20207;-61
2023/05/27 02:24:50;;;;;;;2.10;2.00;;;15.10;99.90;;;;;;5063521;28;20223;-62
2023/05/27 02:27:17;;;;;;;1.90;1.80;;;15.10;99.90;;;;;;5052573;28;20204;-62
2023/05/27 02:29:44;;;;;;;2.00;1.90;;;15.10;99.90;;;;;;5051560;28;20228;-62
2023/05/27 02:32:12;;;;;;;1.92;1.83;;;15.10;99.90;;;;;;5053512;28;20585;-64
2023/05/27 02:34:40;;;;;;;2.00;1.90;;;15.00;99.90;;;;;;5052909;28;20289;-63
2023/05/27 02:37:07;;;;;;;1.93;1.83;;;15.00;99.90;;;;;;5054159;28;20303;-62
2023/05/27 02:39:34;;;;;;;1.70;1.60;;;15.00;99.90;;;;;;5051697;28;20228;-61
2023/05/27 02:42:01;;;;;;;2.17;2.08;;;15.00;99.90;;;;;;5053686;28;20210;-62
2023/05/27 02:44:28;;;;;;;2.00;1.90;;;14.90;99.90;;;;;;5058848;28;20412;-62
2023/05/27 02:46:55;;;;;;;1.90;1.80;;;15.00;99.90;;;;;;5069215;28;20227;-61
2023/05/27 02:49:23;;;;;;;2.00;1.80;;;15.00;99.90;;;;;;5066185;28;20228;-61
2023/05/27 02:51:50;;;;;;;1.80;1.70;;;15.00;99.90;;;;;;5057110;28;20211;-62
2023/05/27 02:54:17;;;;;;;1.73;1.60;;;14.90;99.90;;;;;;5052316;28;20298;-62
2023/05/27 02:56:44;;;;;;;1.63;1.52;;;15.00;99.90;;;;;;5052225;28;20204;-62
2023/05/27 02:59:11;;;;;;;1.70;1.60;;;14.90;99.90;;;;;;5051612;28;20596;-64
2023/05/27 03:01:38;;;;;;;2.20;1.70;;;14.90;99.90;;;;;;5051958;28;20203;-63
2023/05/27 03:04:05;;;;;;;1.85;1.75;;;14.80;99.90;;;;;;5052087;28;20650;-62
2023/05/27 03:06:33;;;;;;;1.97;1.87;;;14.70;99.90;;;;;;5052062;28;20208;-62
2023/05/27 03:09:00;;;;;;;1.90;1.80;;;14.70;99.90;;;;;;5051835;28;20718;-62
2023/05/27 03:11:27;;;;;;;2.20;2.00;;;14.70;99.90;;;;;;5051202;28;20207;-62
2023/05/27 03:13:54;;;;;;;2.30;2.10;;;14.70;99.90;;;;;;5051891;28;20207;-63
2023/05/27 03:16:22;;;;;;;2.03;1.90;;;14.60;99.90;;;;;;5051089;28;20214;-63
2023/05/27 03:18:49;;;;;;;2.13;2.00;;;14.60;99.90;;;;;;5051677;28;20247;-63
2023/05/27 03:21:16;;;;;;;1.93;1.73;;;14.60;99.90;;;;;;5050602;28;20326;-62
2023/05/27 03:23:44;;;;;;;2.15;2.03;;;14.60;99.90;;;;;;5051510;28;20242;-62
2023/05/27 03:26:11;;;;;;;1.80;1.70;;;14.50;99.90;;;;;;5051519;28;20214;-62
2023/05/27 03:28:38;;;;;;;1.75;1.65;;;14.50;99.90;;;;;;5051399;28;20702;-62
2023/05/27 03:31:05;;;;;;;1.90;1.80;;;14.50;99.90;;;;;;5050431;28;20592;-62
2023/05/27 03:33:32;;;;;;;2.15;2.03;;;14.40;99.90;;;;;;5051555;28;20223;-62
2023/05/27 03:35:59;;;;;;;2.20;1.97;;;14.40;99.90;;;;;;5051820;28;20207;-61
2023/05/27 03:38:26;;;;;;;2.17;2.08;;;14.30;99.90;;;;;;5051629;28;20744;-61
2023/05/27 03:40:54;;;;;;;2.47;2.28;;;14.20;99.90;;;;;;5050981;28;20204;-61
2023/05/27 03:43:21;;;;;;;2.58;2.38;;;14.10;99.90;;;;;;5055918;28;20208;-61
2023/05/27 03:45:48;;;;;;;2.30;2.10;;;14.20;99.90;;;;;;5055757;28;20242;-62
2023/05/27 03:48:15;;;;;;;2.10;2.00;;;14.20;99.90;;;;;;5052864;28;20243;-62
2023/05/27 03:50:42;;;;;;;2.38;2.17;;;14.10;99.90;;;;;;5050651;28;20750;-61
2023/05/27 03:53:09;;;;;;;2.47;2.28;;;14.10;99.90;;;;;;5051583;28;20200;-61
2023/05/27 03:55:35;;;;;;;2.20;2.00;;;14.10;99.90;;;;;;5051562;28;20299;-63
2023/05/27 03:58:04;;;;;;;2.15;1.80;;;14.00;99.90;;;;;;5052922;28;20302;-61
2023/05/27 04:00:31;;;;;;;2.17;1.88;;;14.10;99.90;;;;;;5036731;28;20221;-63
2023/05/27 04:02:58;;;;;;;2.00;1.90;;;14.10;99.90;;;;;;5030988;28;20220;-61
2023/05/27 04:05:25;;;;;;;1.87;1.77;;;14.20;99.90;;;;;;5034784;28;20211;-61
2023/05/27 04:07:52;;;;;;;2.05;1.85;;;14.20;99.90;;;;;;5038995;28;20201;-61
2023/05/27 04:10:19;;;;;;;2.00;1.90;;;14.20;99.90;;;;;;5034197;28;20232;-61
2023/05/27 04:12:46;;;;;;;1.80;1.70;;;14.20;99.90;;;;;;5031278;28;20270;-62
2023/05/27 04:15:14;;;;;;;1.87;1.77;;;14.20;99.90;;;;;;5041214;28;20208;-62
2023/05/27 04:17:41;;;;;;;1.88;1.77;;;14.20;99.90;;;;;;5031015;28;20226;-62
2023/05/27 04:20:13;;;;;;;2.20;2.00;;;14.20;99.90;;;;;;5030794;28;20251;-62
2023/05/27 04:22:40;;;;;;;2.10;2.00;;;14.20;99.90;;;;;;5030743;28;20296;-61
2023/05/27 04:25:07;;;;;;;1.85;1.75;;;14.20;99.90;;;;;;5031378;28;20375;-62
2023/05/27 04:27:34;;;;;;;1.95;1.85;;;14.30;99.90;;;;;;5031223;28;20214;-62
2023/05/27 04:30:01;;;;;;;2.38;2.00;;;14.30;99.90;;;;;;5029699;28;20298;-62
2023/05/27 04:32:32;;;;;;;2.53;2.33;;;14.30;99.90;;;;;;5030880;28;20211;-62
2023/05/27 04:35:11;;;;;;;1.70;1.60;;;14.40;99.90;;;;;;5031409;28;20300;-63
2023/05/27 04:37:40;;;;;;;2.00;1.90;;;14.40;99.90;;;;;;5031282;28;20297;-61
2023/05/27 04:40:08;;;;;;;1.80;1.70;;;14.40;99.90;;;;;;5030868;28;20885;-62
2023/05/27 04:42:36;;;;;;;1.85;1.75;;;14.40;99.90;;;;;;5030768;28;20695;-63
2023/05/27 04:45:03;;;;;;;2.10;1.90;;;14.40;99.90;;;;;;5030855;28;20189;-62
2023/05/27 04:47:31;;;;;;;1.92;1.83;;;14.40;99.90;;;;;;5030839;28;20212;-61
2023/05/27 04:50:00;;;;;;;1.97;1.87;;;14.30;99.90;;;;;;5029989;28;20240;-62
2023/05/27 04:52:27;;;;;;;2.35;2.15;;;14.30;99.90;;;;;;5030925;28;20734;-62
2023/05/27 04:54:55;;;;;;;1.67;1.58;;;14.30;99.90;;;;;;5031662;28;20221;-63
2023/05/27 04:57:22;;;;;;;2.03;1.92;;;14.40;99.90;;;;;;5033333;28;20208;-62
2023/05/27 05:00:17;;;;;;;1.88;1.77;;;14.40;99.90;;;;;;5031256;28;20220;-61
2023/05/27 05:02:47;;;;;;;2.22;1.98;;;14.50;99.90;;;;;;5033870;28;20189;-63
2023/05/27 05:05:15;;;;;;;2.40;2.20;;;14.50;99.90;;;;;;5035067;28;20200;-63
2023/05/27 05:07:43;;;;;;;2.05;1.90;;;14.50;99.90;;;;;;5034571;28;20209;-62
2023/05/27 05:10:11;;;;;;;2.00;1.90;;;14.50;99.90;;;;;;5033994;28;20255;-61
2023/05/27 05:12:38;;;;;;;2.03;1.92;;;14.60;99.90;;;;;;5038228;28;20205;-64
2023/05/27 05:15:07;;;;;;;2.20;2.00;;;14.70;99.90;;;;;;5040858;28;20232;-62
2023/05/27 05:17:34;;;;;;;1.75;1.65;;;14.90;99.90;;;;;;5043658;28;20208;-63
2023/05/27 05:20:04;;;;;;;1.80;1.70;;;15.10;99.90;;;;;;5035669;28;20311;-62
2023/05/27 05:22:31;;;;;;;2.20;2.00;;;15.20;99.90;;;;;;5034914;28;20605;-61
2023/05/27 05:24:58;;;;;;;2.30;2.10;;;15.30;99.90;;;;;;5034591;28;20247;-65
2023/05/27 05:27:25;;;;;;;1.98;1.88;;;15.30;99.90;;;;;;5034377;28;20291;-61
2023/05/27 05:29:52;;;;;;;2.17;2.05;;;15.40;99.90;;;;;;5033807;28;20225;-63
2023/05/27 05:32:19;;;;;;;2.08;1.88;;;15.50;99.90;;;;;;5034977;28;20209;-63
2023/05/27 05:34:46;;;;;;;1.90;1.73;;;15.60;99.90;;;;;;5045300;28;20224;-63
2023/05/27 05:37:15;;;;;;;1.95;1.85;;;15.70;99.90;;;;;;5046961;28;20232;-62
2023/05/27 05:39:43;;;;;;;2.22;1.98;;;15.90;99.90;;;;;;5046802;28;20292;-63
2023/05/27 05:42:09;;;;;;;2.50;2.30;;;16.10;99.90;;;;;;5048458;28;20219;-61
2023/05/27 05:44:36;;;;;;;2.15;2.00;;;16.10;99.90;;;;;;5043600;28;20678;-62
2023/05/27 05:47:03;;;;;;;2.00;1.90;;;16.10;99.90;;;;;;5058282;28;20267;-62
2023/05/27 05:49:30;;;;;;;2.30;2.10;;;16.10;99.90;;;;;;5056498;28;20636;-62
2023/05/27 05:51:57;;;;;;;2.35;1.70;;;16.20;99.90;;;;;;5056315;28;20259;-62
2023/05/27 05:54:25;;;;;;;2.35;2.15;;;16.40;99.90;;;;;;5055224;28;20211;-64
2023/05/27 05:56:53;;;;;;;2.25;2.05;;;16.50;99.90;;;;;;5054626;28;20203;-65
2023/05/27 05:59:20;;;;;;;2.33;2.13;;;16.70;99.90;;;;;;5054111;28;20254;-61
2023/05/27 06:01:46;;;;;;;2.53;2.28;;;16.70;99.90;;;;;;5054318;28;20215;-62
2023/05/27 06:04:13;;;;;;;2.15;2.05;;;16.80;99.90;;;;;;5054687;28;20208;-64
2023/05/27 06:06:41;;;;;;;2.10;2.00;;;16.90;99.90;;;;;;5061380;28;20189;-62
2023/05/27 06:09:07;;;;;;;2.40;2.20;;;16.90;99.90;;;;;;5057888;28;20303;-62
2023/05/27 06:11:36;;;;;;;2.33;2.23;;;17.00;99.90;;;;;;5053489;28;20789;-64
2023/05/27 06:14:03;;;;;;;2.25;2.15;;;17.10;99.90;;;;;;5052248;28;20215;-62
2023/05/27 06:16:29;;;;;;;2.17;2.07;;;17.10;99.90;;;;;;5053148;28;20214;-64
2023/05/27 06:18:56;;;;;;;2.67;2.47;;;17.20;99.90;;;;;;5052953;28;20627;-64
2023/05/27 06:21:23;;;;;;;2.25;2.05;;;17.20;99.90;;;;;;5052691;28;20208;-64
2023/05/27 06:23:50;;;;;;;2.53;2.33;;;17.30;99.90;;;;;;5052985;28;20218;-63
2023/05/27 06:26:17;;;;;;;2.45;2.22;;;17.30;99.90;;;;;;5053651;28;20204;-63
2023/05/27 06:28:45;;;;;;;2.42;2.13;;;17.40;99.90;;;;;;5053561;28;20238;-63
2023/05/27 06:31:12;;;;;;;2.13;1.93;;;17.50;99.90;;;;;;5052338;28;20227;-64
2023/05/27 06:33:38;;;;;;;1.95;1.85;;;17.60;99.90;;;;;;5052777;28;20654;-62
2023/05/27 06:36:06;;;;;;;2.17;2.07;;;17.70;99.90;;;;;;5054988;28;20208;-63
2023/05/27 06:38:32;;;;;;;2.58;1.98;;;17.70;99.90;;;;;;5054173;28;20228;-61
2023/05/27 06:40:59;;;;;;;2.10;1.93;;;17.80;99.90;;;;;;5052719;28;20204;-61
2023/05/27 06:43:26;;;;;;;2.05;1.95;;;17.90;99.90;;;;;;5052441;28;20236;-61
2023/05/27 06:45:54;;;;;;;2.00;1.90;;;18.00;99.90;;;;;;5052773;28;20672;-63
2023/05/27 06:48:21;;;;;;;1.98;1.73;;;18.10;99.90;;;;;;5052130;28;20683;-63
2023/05/27 06:50:48;;;;;;;2.40;2.20;;;18.10;99.90;;;;;;5051749;28;20220;-63
2023/05/27 06:53:15;;;;;;;2.33;2.13;;;18.20;99.90;;;;;;5052197;28;20314;-63
2023/05/27 06:55:41;;;;;;;1.90;1.80;;;18.30;99.90;;;;;;5052585;28;20207;-62
2023/05/27 06:58:08;;;;;;;2.17;1.98;;;18.40;99.90;;;;;;5057568;28;21021;-62
2023/05/27 07:00:35;;;;;;;2.10;2.00;;;18.50;99.90;;;;;;5053641;28;20203;-63
2023/05/27 07:03:04;;;;;;;2.00;1.88;;;18.60;99.90;;;;;;5052440;28;20222;-63
2023/05/27 07:05:30;;;;;;;2.22;2.00;;;18.60;99.90;;;;;;5052281;28;20206;-63
2023/05/27 07:07:58;;;;;;;2.00;1.90;;;18.70;99.90;;;;;;5055734;28;20214;-64
2023/05/27 07:10:25;;;;;;;2.20;2.00;;;18.70;99.90;;;;;;5056056;28;20228;-63
2023/05/27 07:12:52;;;;;;;2.35;2.13;;;18.80;99.90;;;;;;5053214;28;20210;-63
2023/05/27 07:15:19;;;;;;;2.15;1.95;;;18.80;99.90;;;;;;5051689;28;20204;-62
2023/05/27 07:17:46;;;;;;;2.38;2.17;;;18.80;99.90;;;;;;5051804;28;20230;-64
2023/05/27 07:20:15;;;;;;;2.43;2.23;;;18.80;99.90;;;;;;5050802;28;20231;-63
2023/05/27 07:22:41;;;;;;;2.17;2.08;;;18.90;99.90;;;;;;5052545;28;20674;-63
2023/05/27 07:25:09;;;;;;;2.00;1.90;;;18.90;99.90;;;;;;5051210;28;20203;-62
2023/05/27 07:27:36;;;;;;;2.03;1.87;;;19.00;99.90;;;;;;5051664;28;20210;-62
2023/05/27 07:30:04;;;;;;;2.00;1.90;;;19.20;99.90;;;;;;5051209;28;20226;-62
2023/05/27 07:32:31;;;;;;;2.20;2.00;;;19.30;99.90;;;;;;5051592;28;20601;-63
2023/05/27 07:34:58;;;;;;;2.50;2.30;;;19.40;99.90;;;;;;5052321;28;20294;-62
2023/05/27 07:37:28;;;;;;;2.42;2.22;;;19.40;99.90;;;;;;5053096;28;20319;-62
2023/05/27 07:39:55;;;;;;;2.55;2.35;;;19.40;99.90;;;;;;5051645;28;20337;-63
2023/05/27 07:42:21;;;;;;;2.00;1.90;;;19.40;99.90;;;;;;5039792;28;20250;-62
2023/05/27 07:44:48;;;;;;;1.70;1.60;;;19.40;99.90;;;;;;5032417;28;20207;-62
2023/05/27 07:47:15;;;;;;;2.42;2.15;;;19.50;99.90;;;;;;5032110;28;20207;-61
2023/05/27 07:49:42;;;;;;;2.20;2.00;;;19.50;99.90;;;;;;5028165;28;20235;-61
2023/05/27 07:52:09;;;;;;;2.28;2.08;;;19.60;99.90;;;;;;5031026;28;20303;-62
2023/05/27 07:54:37;;;;;;;2.80;2.22;;;19.70;99.90;;;;;;5031278;28;20570;-61
2023/05/27 07:57:06;;;;;;;2.15;2.00;;;19.80;99.90;;;;;;5030867;28;20200;-62
2023/05/27 07:59:33;;;;;;;2.42;2.03;;;19.90;99.90;;;;;;5030499;28;20307;-62
2023/05/27 08:01:59;;;;;;;2.50;2.30;;;19.90;99.90;;;;;;5030965;28;20574;-62
2023/05/27 08:04:26;;;;;;;2.13;1.98;;;20.00;99.90;;;;;;5031024;28;20202;-62
2023/05/27 08:06:53;;;;;;;1.85;1.75;;;20.10;99.90;;;;;;5030855;28;20274;-61
2023/05/27 08:09:20;;;;;;;2.30;2.10;;;20.20;99.90;;;;;;5037184;28;20295;-63
2023/05/27 08:11:48;;;;;;;1.75;1.65;;;20.20;99.90;;;;;;5038703;28;20660;-61
2023/05/27 08:14:15;;;;;;;2.35;2.15;;;20.20;99.90;;;;;;5031107;28;20227;-62
2023/05/27 08:16:42;;;;;;;2.40;2.20;;;20.30;99.90;;;;;;5031041;28;20208;-62
2023/05/27 08:19:09;;;;;;;1.85;1.75;;;20.40;99.90;;;;;;5030287;28;20236;-62
2023/05/27 08:21:36;;;;;;;2.20;2.00;;;20.40;99.90;;;;;;5030780;28;20212;-62
2023/05/27 08:24:05;;;;;;;2.00;1.90;;;20.50;99.90;;;;;;5031432;28;20478;-62
2023/05/27 08:26:32;;;;;;;2.22;2.13;;;20.70;99.90;;;;;;5031223;28;20272;-62
2023/05/27 08:29:00;;;;;;;2.70;2.20;;;20.70;99.90;;;;;;5033150;28;20228;-62
2023/05/27 08:31:27;;;;;;;2.33;2.13;;;20.60;99.90;;;;;;5031999;28;20929;-63
2023/05/27 08:33:53;;;;;;;2.30;2.10;;;20.60;99.90;;;;;;5031670;28;20208;-63
2023/05/27 08:36:20;;;;;;;2.22;2.05;;;20.70;99.90;;;;;;5031956;28;20200;-62
2023/05/27 08:38:47;;;;;;;2.30;2.10;;;21.00;99.90;;;;;;5035066;28;20307;-63
2023/05/27 08:41:15;;;;;;;2.08;1.90;;;21.10;99.90;;;;;;5034509;28;20205;-63
2023/05/27 08:43:42;;;;;;;3.90;2.20;;;21.20;99.90;;;;;;5034608;28;20204;-63
2023/05/27 08:46:11;;;;;;;2.97;2.08;;;21.10;99.90;;;;;;5034493;28;20666;-62
2023/05/27 08:48:38;;;;;;;2.40;2.20;;;21.10;99.90;;;;;;5034295;28;20236;-63
2023/05/27 08:51:06;;;;;;;2.30;2.10;;;21.30;99.90;;;;;;5034037;28;20228;-63
2023/05/27 08:53:34;;;;;;;2.28;2.08;;;21.30;99.90;;;;;;5034581;28;20208;-63
2023/05/27 08:56:02;;;;;;;2.35;2.00;;;21.40;99.90;;;;;;5034286;28;20340;-63
2023/05/27 08:58:29;;;;;;;2.50;2.30;;;21.30;99.90;;;;;;5034321;28;20228;-62
2023/05/27 09:00:57;;;;;;;2.60;2.40;;;21.20;99.90;;;;;;5033394;28;20243;-63
2023/05/27 09:03:27;;;;;;;2.65;2.45;;;21.10;99.90;;;;;;5034704;28;20608;-63
2023/05/27 09:05:55;;;;;;;2.10;1.90;;;20.90;99.90;;;;;;5034700;28;20773;-63
2023/05/27 09:08:22;;;;;;;1.98;1.88;;;21.00;99.90;;;;;;5034248;28;20204;-62
2023/05/27 09:10:49;;;;;;;2.42;2.22;;;21.20;99.90;;;;;;5033701;28;20209;-63
2023/05/27 09:13:27;;;;;;;2.30;2.10;;;21.40;99.90;;;;;;5034252;28;20200;-63
2023/05/27 09:15:59;;;;;;;4.07;2.38;;;21.50;99.90;;;;;;5031667;28;20675;-62
2023/05/27 09:18:28;;;;;;;2.10;2.00;;;21.60;99.90;;;;;;5026196;28;20209;-62
2023/05/27 09:20:56;;;;;;;3.60;3.38;;;21.50;99.90;;;;;;5029242;28;20204;-62
2023/05/27 09:23:24;;;;;;;2.30;2.10;;;21.40;99.90;;;;;;5030831;28;20200;-62
2023/05/27 09:25:51;;;;;;;2.45;2.25;;;21.40;99.90;;;;;;5034479;28;20247;-62
2023/05/27 09:28:22;;;;;;;2.22;1.95;;;21.40;99.90;;;;;;5033411;28;20762;-63
2023/05/27 09:30:53;;;;;;;2.28;2.10;;;21.60;99.90;;;;;;5032751;28;20760;-62
2023/05/27 09:33:24;;;;;;;2.10;2.00;;;21.80;99.90;;;;;;5031789;28;20201;-62
2023/05/27 09:35:53;;;;;;;1.98;1.88;;;21.90;99.90;;;;;;5034415;28;20211;-63
2023/05/27 09:38:19;;;;;;;1.90;1.80;;;22.00;99.90;;;;;;5034821;28;20726;-62
2023/05/27 09:40:46;;;;;;;2.10;2.00;;;22.10;99.90;;;;;;5031282;28;20211;-61
2023/05/27 09:43:15;;;;;;;2.28;2.08;;;22.20;99.90;;;;;;5027959;28;20740;-61
2023/05/27 09:45:43;;;;;;;1.92;1.83;;;22.30;99.90;;;;;;5026171;28;20209;-63
2023/05/27 09:48:13;;;;;;;2.38;2.17;;;22.30;99.90;;;;;;5031182;28;20216;-62
2023/05/27 09:50:45;;;;;;;1.92;1.83;;;22.50;99.90;;;;;;5038715;28;20212;-62
2023/05/27 09:53:14;;;;;;;2.53;2.28;;;22.40;99.90;;;;;;5032317;28;20221;-64
2023/05/27 09:55:42;;;;;;;2.00;1.90;;;22.50;99.90;;;;;;5033821;28;20614;-63
2023/05/27 09:58:09;;;;;;;1.80;1.70;;;22.40;99.90;;;;;;5032745;28;20209;-63
2023/05/27 10:00:37;;;;;;;2.42;2.20;;;22.50;99.90;;;;;;5030205;28;20209;-63
2023/05/27 10:03:06;;;;;;;4.82;4.45;;;22.70;99.90;;;;;;5028181;28;20514;-63
2023/05/27 10:05:33;;;;;;;3.53;3.33;;;22.80;99.90;;;;;;5028476;28;20208;-63
2023/05/27 10:08:01;;;;;;;2.10;1.90;;;22.60;99.90;;;;;;5024017;28;20522;-62
2023/05/27 10:10:29;;;;;;;2.15;1.95;;;22.70;99.90;;;;;;5032374;28;20231;-64
2023/05/27 10:12:58;;;;;;;2.38;2.17;;;22.90;99.90;;;;;;5033287;28;20220;-62
2023/05/27 10:15:26;;;;;;;2.30;2.10;;;22.90;99.90;;;;;;5026397;28;20636;-64
2023/05/27 10:17:55;;;;;;;2.03;1.92;;;23.00;99.90;;;;;;5035669;28;20209;-64
2023/05/27 10:20:30;;;;;;;2.20;2.00;;;23.10;99.90;;;;;;5035739;28;20225;-63
2023/05/27 10:23:10;;;;;;;2.20;2.00;;;23.20;99.90;;;;;;5046439;28;20549;-64
2023/05/27 10:25:39;;;;;;;2.33;2.10;;;23.40;99.90;;;;;;5026056;28;20250;-63
2023/05/27 10:28:06;;;;;;;2.20;2.00;;;23.40;99.90;;;;;;5033734;28;20212;-63
2023/05/27 10:30:44;;;;;;;2.15;1.95;;;23.40;99.90;;;;;;5025826;28;20327;-63
2023/05/27 10:33:11;;;;;;;3.50;2.10;;;23.40;99.90;;;;;;5032240;28;20607;-62
2023/05/27 10:35:42;;;;;;;2.00;1.90;;;23.50;99.90;;;;;;5033375;28;20204;-62
2023/05/27 10:38:17;;;;;;;1.70;1.60;;;23.60;99.90;;;;;;5033552;28;20205;-62
2023/05/27 10:40:47;;;;;;;2.55;2.35;;;23.60;99.90;;;;;;5032526;28;20208;-62
2023/05/27 10:43:17;;;;;;;2.20;1.88;;;23.50;99.90;;;;;;5033123;28;20205;-62
2023/05/27 10:45:44;;;;;;;2.22;2.10;;;23.60;99.90;;;;;;5029444;28;20204;-62
2023/05/27 10:48:17;;;;;;;1.92;1.83;;;23.80;99.90;;;;;;5028207;28;20213;-62
2023/05/27 10:50:51;;;;;;;2.03;1.92;;;24.00;99.90;;;;;;5032381;28;20193;-61
2023/05/27 10:53:20;;;;;;;2.33;2.13;;;24.10;99.90;;;;;;5029958;28;20616;-64
2023/05/27 10:55:51;;;;;;;1.80;1.70;;;24.20;99.90;;;;;;5033560;28;20303;-64
2023/05/27 10:58:18;;;;;;;2.58;2.20;;;24.20;99.90;;;;;;5032262;28;20209;-64
2023/05/27 11:00:46;;;;;;;2.33;2.13;;;24.20;99.90;;;;;;5032660;28;20212;-62
2023/05/27 11:03:22;;;;;;;1.85;1.75;;;24.20;99.90;;;;;;5031881;28;20622;-62
2023/05/27 11:05:58;;;;;;;2.03;1.92;;;24.30;99.90;;;;;;5035799;28;20208;-62
2023/05/27 11:08:25;;;;;;;2.15;2.03;;;24.40;99.90;;;;;;5018374;28;20291;-61
2023/05/27 11:10:58;;;;;;;2.40;2.20;;;24.40;99.90;;;;;;5016123;28;20212;-64
2023/05/27 11:13:31;;;;;;;1.80;1.70;;;24.40;99.90;;;;;;5016008;28;20213;-63
2023/05/27 11:15:58;;;;;;;2.10;2.00;;;24.40;99.90;;;;;;5013879;28;20240;-62
2023/05/27 11:18:25;;;;;;;2.03;1.92;;;24.60;99.90;;;;;;5014554;28;20205;-61
2023/05/27 11:20:51;;;;;;;2.78;2.58;;;24.60;99.90;;;;;;5022730;28;20208;-63
2023/05/27 11:23:19;;;;;;;2.95;2.00;;;24.70;99.90;;;;;;5030059;28;20201;-63
2023/05/27 11:25:46;;;;;;;2.40;2.20;;;24.60;99.90;;;;;;5031910;28;20660;-65
2023/05/27 11:28:17;;;;;;;3.17;2.15;;;24.70;99.90;;;;;;5031836;28;20261;-63
2023/05/27 11:30:44;;;;;;;2.38;1.70;;;24.90;99.90;;;;;;5030909;28;20197;-62
2023/05/27 11:33:11;;;;;;;2.40;2.10;;;25.10;99.90;;;;;;5031337;28;20225;-63
2023/05/27 11:35:38;;;;;;;1.95;1.85;;;25.20;99.90;;;;;;5031414;28;20296;-61
2023/05/27 11:38:04;;;;;;;2.72;1.83;;;25.20;99.90;;;;;;5031441;28;20211;-64
2023/05/27 11:40:40;;;;;;;2.22;2.10;;;25.30;99.90;;;;;;5028551;28;20220;-64
2023/05/27 11:43:07;;;;;;;2.20;2.00;;;25.40;99.90;;;;;;5026911;28;20206;-62
2023/05/27 11:45:38;;;;;;;3.75;3.55;;;25.40;99.90;;;;;;5030696;28;20672;-62
2023/05/27 11:48:05;;;;;;;2.35;2.15;;;25.40;99.90;;;;;;5030104;28;20218;-62
2023/05/27 11:50:31;;;;;;;2.20;2.00;;;25.40;99.90;;;;;;5027821;28;20244;-63
2023/05/27 11:53:03;;;;;;;1.98;1.88;;;25.30;99.90;;;;;;5031706;28;20242;-63
2023/05/27 11:55:31;;;;;;;2.05;1.90;;;25.50;99.90;;;;;;5016961;28;20660;-61
2023/05/27 11:57:58;;;;;;;2.10;2.00;;;25.60;99.90;;;;;;5027221;28;20201;-62
2023/05/27 12:00:25;;;;;;;2.10;2.00;;;25.70;99.90;;;;;;5024561;28;20225;-62
2023/05/27 12:02:53;;;;;;;2.00;1.90;;;25.80;99.90;;;;;;5028153;28;20204;-62
2023/05/27 12:05:20;;;;;;;3.55;3.25;;;25.70;99.90;;;;;;5030806;28;20295;-62
2023/05/27 12:07:49;;;;;;;2.80;2.20;;;25.60;99.90;;;;;;5031212;28;20205;-63
2023/05/27 12:10:16;;;;;;;2.15;2.00;;;25.70;99.90;;;;;;5030681;28;20345;-63
2023/05/27 12:12:44;;;;;;;2.10;2.00;;;25.80;99.90;;;;;;5033298;28;20238;-62
2023/05/27 12:15:11;;;;;;;2.00;1.90;;;25.90;99.90;;;;;;5052641;28;20266;-62
2023/05/27 12:17:37;;;;;;;2.35;2.13;;;26.00;99.90;;;;;;5055469;28;20211;-62
2023/05/27 12:20:08;;;;;;;1.80;1.65;;;26.10;99.90;;;;;;5054210;28;20683;-63
2023/05/27 12:22:35;;;;;;;1.85;1.70;;;26.20;99.90;;;;;;5055322;28;20298;-64
2023/05/27 12:25:01;;;;;;;1.80;1.70;;;26.30;99.90;;;;;;5056052;28;20671;-63
2023/05/27 12:27:28;;;;;;;1.80;1.70;;;26.50;99.90;;;;;;5055326;28;20204;-62
2023/05/27 12:29:55;;;;;;;1.73;1.63;;;26.50;99.90;;;;;;5043835;28;20228;-62
2023/05/27 12:32:22;;;;;;;1.73;1.63;;;26.70;99.90;;;;;;5034011;28;20216;-62
2023/05/27 12:34:49;;;;;;;1.92;1.83;;;26.70;99.90;;;;;;5041515;28;20208;-61
2023/05/27 12:37:17;;;;;;;1.75;1.65;;;26.70;99.90;;;;;;5032904;28;20208;-61
2023/05/27 12:39:44;;;;;;;1.88;1.77;;;26.80;99.90;;;;;;5030729;28;20220;-62
2023/05/27 12:42:11;;;;;;;1.77;1.67;;;26.90;99.90;;;;;;5040516;28;20296;-62
2023/05/27 12:44:37;;;;;;;1.85;1.75;;;26.90;99.90;;;;;;5034498;28;20275;-63
2023/05/27 12:47:05;;;;;;;1.85;1.75;;;27.00;99.90;;;;;;5034423;28;20291;-63
2023/05/27 12:49:32;;;;;;;1.80;1.70;;;27.10;99.90;;;;;;5041195;28;20622;-64
2023/05/27 12:51:59;;;;;;;1.77;1.67;;;27.10;99.90;;;;;;5039880;28;20197;-62